sensor_id;sensor_type;location;lat;lon;timestamp;temperature;humidity
76996;DHT22;65929;49.062;10.338;2023-11-21T00:00:25;6.10;96.00
76996;DHT22;65929;49.062;10.338;2023-11-21T00:01:26;6.10;96.00
76996;DHT22;65929;49.062;10.338;2023-11-21T00:02:27;6.10;96.00
76996;DHT22;65929;49.062;10.338;2023-11-21T00:03:28;6.10;96.10
76996;DHT22;65929;49.062;10.338;2023-11-21T00:04:29;6.10;96.10
76996;DHT22;65929;49.062;10.338;2023-11-21T00:05:30;6.10;96.20
76996;DHT22;65929;49.062;10.338;2023-11-21T00:06:31;6.10;96.20
76996;DHT22;65929;49.062;10.338;2023-11-21T00:07:32;6.10;96.20
76996;DHT22;65929;49.062;10.338;2023-11-21T00:08:33;6.10;96.20
76996;DHT22;65929;49.062;10.338;2023-11-21T00:09:34;6.10;96.20
76996;DHT22;65929;49.062;10.338;2023-11-21T00:10:37;6.10;96.20
76996;DHT22;65929;49.062;10.338;2023-11-21T00:11:39;6.10;96.20
76996;DHT22;65929;49.062;10.338;2023-11-21T00:12:40;6.10;96.20
76996;DHT22;65929;49.062;10.338;2023-11-21T00:13:42;6.10;96.20
76996;DHT22;65929;49.062;10.338;2023-11-21T00:14:44;6.10;96.10
76996;DHT22;65929;49.062;10.338;2023-11-21T00:15:47;6.10;96.10
76996;DHT22;65929;49.062;10.338;2023-11-21T00:16:48;6.10;96.00
76996;DHT22;65929;49.062;10.338;2023-11-21T00:17:49;6.10;96.00
76996;DHT22;65929;49.062;10.338;2023-11-21T00:18:50;6.10;96.00
76996;DHT22;65929;49.062;10.338;2023-11-21T00:19:51;6.10;96.10
76996;DHT22;65929;49.062;10.338;2023-11-21T00:20:55;6.10;96.00
76996;DHT22;65929;49.062;10.338;2023-11-21T00:21:56;6.10;96.00
76996;DHT22;65929;49.062;10.338;2023-11-21T00:22:58;6.10;96.00
76996;DHT22;65929;49.062;10.338;2023-11-21T00:24:00;6.10;95.90
76996;DHT22;65929;49.062;10.338;2023-11-21T00:25:01;6.10;95.90
76996;DHT22;65929;49.062;10.338;2023-11-21T00:26:02;6.10;96.00
76996;DHT22;65929;49.062;10.338;2023-11-21T00:27:04;6.10;95.90
76996;DHT22;65929;49.062;10.338;2023-11-21T00:28:06;6.00;95.90
76996;DHT22;65929;49.062;10.338;2023-11-21T00:29:07;6.10;95.90
76996;DHT22;65929;49.062;10.338;2023-11-21T00:30:09;6.00;95.90
76996;DHT22;65929;49.062;10.338;2023-11-21T00:31:12;6.10;95.90
76996;DHT22;65929;49.062;10.338;2023-11-21T00:32:13;6.00;95.90
76996;DHT22;65929;49.062;10.338;2023-11-21T00:33:14;6.00;95.90
76996;DHT22;65929;49.062;10.338;2023-11-21T00:34:14;6.00;95.90
76996;DHT22;65929;49.062;10.338;2023-11-21T00:35:15;6.00;95.90
76996;DHT22;65929;49.062;10.338;2023-11-21T00:36:16;6.00;95.70
76996;DHT22;65929;49.062;10.338;2023-11-21T00:37:17;6.00;95.70
76996;DHT22;65929;49.062;10.338;2023-11-21T00:38:18;6.00;95.70
76996;DHT22;65929;49.062;10.338;2023-11-21T00:39:20;6.00;95.60
76996;DHT22;65929;49.062;10.338;2023-11-21T00:40:21;6.00;95.60
76996;DHT22;65929;49.062;10.338;2023-11-21T00:41:23;6.00;95.50
76996;DHT22;65929;49.062;10.338;2023-11-21T00:42:24;6.00;95.50
76996;DHT22;65929;49.062;10.338;2023-11-21T00:43:25;6.00;95.50
76996;DHT22;65929;49.062;10.338;2023-11-21T00:44:28;6.00;95.50
76996;DHT22;65929;49.062;10.338;2023-11-21T00:45:29;6.00;95.50
76996;DHT22;65929;49.062;10.338;2023-11-21T00:46:31;6.00;95.50
76996;DHT22;65929;49.062;10.338;2023-11-21T00:47:33;6.00;95.50
76996;DHT22;65929;49.062;10.338;2023-11-21T00:48:33;6.00;95.60
76996;DHT22;65929;49.062;10.338;2023-11-21T00:49:34;6.00;95.60
76996;DHT22;65929;49.062;10.338;2023-11-21T00:50:35;6.00;95.60
76996;DHT22;65929;49.062;10.338;2023-11-21T00:51:36;6.00;95.70
76996;DHT22;65929;49.062;10.338;2023-11-21T00:52:37;6.00;95.70
76996;DHT22;65929;49.062;10.338;2023-11-21T00:53:38;6.00;95.70
76996;DHT22;65929;49.062;10.338;2023-11-21T00:54:40;6.00;95.80
76996;DHT22;65929;49.062;10.338;2023-11-21T00:55:41;6.00;95.90
76996;DHT22;65929;49.062;10.338;2023-11-21T00:56:41;6.00;96.00
76996;DHT22;65929;49.062;10.338;2023-11-21T00:57:42;6.00;96.00
76996;DHT22;65929;49.062;10.338;2023-11-21T00:58:43;6.00;96.00
76996;DHT22;65929;49.062;10.338;2023-11-21T00:59:47;6.00;96.00
76996;DHT22;65929;49.062;10.338;2023-11-21T01:00:48;6.00;96.10
76996;DHT22;65929;49.062;10.338;2023-11-21T01:01:50;6.00;96.10
76996;DHT22;65929;49.062;10.338;2023-11-21T01:02:51;6.00;96.20
76996;DHT22;65929;49.062;10.338;2023-11-21T01:03:52;6.00;96.20
76996;DHT22;65929;49.062;10.338;2023-11-21T01:04:54;6.00;96.20
76996;DHT22;65929;49.062;10.338;2023-11-21T01:05:55;6.00;96.30
76996;DHT22;65929;49.062;10.338;2023-11-21T01:06:56;6.00;96.40
76996;DHT22;65929;49.062;10.338;2023-11-21T01:07:57;6.00;96.40
76996;DHT22;65929;49.062;10.338;2023-11-21T01:08:58;6.00;96.50
76996;DHT22;65929;49.062;10.338;2023-11-21T01:09:59;6.00;96.40
76996;DHT22;65929;49.062;10.338;2023-11-21T01:10:59;6.00;96.50
76996;DHT22;65929;49.062;10.338;2023-11-21T01:12:01;6.00;96.50
76996;DHT22;65929;49.062;10.338;2023-11-21T01:13:02;6.00;96.50
76996;DHT22;65929;49.062;10.338;2023-11-21T01:14:05;6.00;96.50
76996;DHT22;65929;49.062;10.338;2023-11-21T01:15:09;6.00;96.50
76996;DHT22;65929;49.062;10.338;2023-11-21T01:16:12;6.00;96.50
76996;DHT22;65929;49.062;10.338;2023-11-21T01:17:14;6.00;96.50
76996;DHT22;65929;49.062;10.338;2023-11-21T01:18:15;6.00;96.50
76996;DHT22;65929;49.062;10.338;2023-11-21T01:19:16;6.00;96.50
76996;DHT22;65929;49.062;10.338;2023-11-21T01:20:17;6.00;96.50
76996;DHT22;65929;49.062;10.338;2023-11-21T01:21:18;6.00;96.60
76996;DHT22;65929;49.062;10.338;2023-11-21T01:22:19;6.00;96.60
76996;DHT22;65929;49.062;10.338;2023-11-21T01:23:26;6.00;96.60
76996;DHT22;65929;49.062;10.338;2023-11-21T01:24:27;5.90;96.60
76996;DHT22;65929;49.062;10.338;2023-11-21T01:25:28;5.90;96.60
76996;DHT22;65929;49.062;10.338;2023-11-21T01:26:29;5.90;96.70
76996;DHT22;65929;49.062;10.338;2023-11-21T01:27:30;5.90;96.70
76996;DHT22;65929;49.062;10.338;2023-11-21T01:28:31;5.90;96.70
76996;DHT22;65929;49.062;10.338;2023-11-21T01:29:31;5.90;96.80
76996;DHT22;65929;49.062;10.338;2023-11-21T01:30:32;5.90;96.90
76996;DHT22;65929;49.062;10.338;2023-11-21T01:31:33;5.90;96.90
76996;DHT22;65929;49.062;10.338;2023-11-21T01:32:36;5.90;97.00
76996;DHT22;65929;49.062;10.338;2023-11-21T01:33:37;5.90;97.00
76996;DHT22;65929;49.062;10.338;2023-11-21T01:34:37;5.90;97.10
76996;DHT22;65929;49.062;10.338;2023-11-21T01:35:38;5.90;97.10
76996;DHT22;65929;49.062;10.338;2023-11-21T01:36:39;5.90;97.20
76996;DHT22;65929;49.062;10.338;2023-11-21T01:37:40;5.90;97.10
76996;DHT22;65929;49.062;10.338;2023-11-21T01:38:41;5.90;97.10
76996;DHT22;65929;49.062;10.338;2023-11-21T01:39:42;5.90;97.10
76996;DHT22;65929;49.062;10.338;2023-11-21T01:40:45;5.90;97.10
76996;DHT22;65929;49.062;10.338;2023-11-21T01:41:46;5.90;97.10
76996;DHT22;65929;49.062;10.338;2023-11-21T01:42:47;5.90;97.10
76996;DHT22;65929;49.062;10.338;2023-11-21T01:43:48;5.90;97.10
76996;DHT22;65929;49.062;10.338;2023-11-21T01:44:49;5.90;97.20
76996;DHT22;65929;49.062;10.338;2023-11-21T01:45:50;5.90;97.10
76996;DHT22;65929;49.062;10.338;2023-11-21T01:46:51;5.90;97.10
76996;DHT22;65929;49.062;10.338;2023-11-21T01:47:54;5.90;97.20
76996;DHT22;65929;49.062;10.338;2023-11-21T01:48:55;5.90;97.20
76996;DHT22;65929;49.062;10.338;2023-11-21T01:49:55;5.90;97.20
76996;DHT22;65929;49.062;10.338;2023-11-21T01:50:56;5.90;97.20
76996;DHT22;65929;49.062;10.338;2023-11-21T01:51:58;5.90;97.20
76996;DHT22;65929;49.062;10.338;2023-11-21T01:52:59;5.90;97.30
76996;DHT22;65929;49.062;10.338;2023-11-21T01:54:02;5.90;97.20
76996;DHT22;65929;49.062;10.338;2023-11-21T01:55:07;5.90;97.20
76996;DHT22;65929;49.062;10.338;2023-11-21T01:56:09;5.90;97.20
76996;DHT22;65929;49.062;10.338;2023-11-21T01:57:10;5.90;97.20
76996;DHT22;65929;49.062;10.338;2023-11-21T01:58:12;5.90;97.20
76996;DHT22;65929;49.062;10.338;2023-11-21T01:59:19;5.90;97.30
76996;DHT22;65929;49.062;10.338;2023-11-21T02:00:22;5.90;97.20
76996;DHT22;65929;49.062;10.338;2023-11-21T02:01:24;5.90;97.30
76996;DHT22;65929;49.062;10.338;2023-11-21T02:02:26;5.90;97.30
76996;DHT22;65929;49.062;10.338;2023-11-21T02:03:28;5.90;97.30
76996;DHT22;65929;49.062;10.338;2023-11-21T02:04:29;5.90;97.30
76996;DHT22;65929;49.062;10.338;2023-11-21T02:05:30;5.90;97.40
76996;DHT22;65929;49.062;10.338;2023-11-21T02:06:31;5.90;97.40
76996;DHT22;65929;49.062;10.338;2023-11-21T02:07:32;5.90;97.40
76996;DHT22;65929;49.062;10.338;2023-11-21T02:08:33;5.90;97.50
76996;DHT22;65929;49.062;10.338;2023-11-21T02:09:34;5.90;97.50
76996;DHT22;65929;49.062;10.338;2023-11-21T02:10:35;5.90;97.50
76996;DHT22;65929;49.062;10.338;2023-11-21T02:11:37;5.90;97.50
76996;DHT22;65929;49.062;10.338;2023-11-21T02:12:39;5.90;97.50
76996;DHT22;65929;49.062;10.338;2023-11-21T02:13:40;5.90;97.60
76996;DHT22;65929;49.062;10.338;2023-11-21T02:14:46;5.90;97.60
76996;DHT22;65929;49.062;10.338;2023-11-21T02:15:47;5.90;97.70
76996;DHT22;65929;49.062;10.338;2023-11-21T02:16:50;5.90;97.70
76996;DHT22;65929;49.062;10.338;2023-11-21T02:17:52;5.90;97.60
76996;DHT22;65929;49.062;10.338;2023-11-21T02:18:56;5.90;97.60
76996;DHT22;65929;49.062;10.338;2023-11-21T02:19:57;6.00;97.60
76996;DHT22;65929;49.062;10.338;2023-11-21T02:20:59;6.00;97.60
76996;DHT22;65929;49.062;10.338;2023-11-21T02:22:04;6.00;97.60
76996;DHT22;65929;49.062;10.338;2023-11-21T02:23:08;6.00;97.50
76996;DHT22;65929;49.062;10.338;2023-11-21T02:24:09;6.00;97.50
76996;DHT22;65929;49.062;10.338;2023-11-21T02:25:10;6.00;97.50
76996;DHT22;65929;49.062;10.338;2023-11-21T02:26:12;6.00;97.50
76996;DHT22;65929;49.062;10.338;2023-11-21T02:27:13;6.00;97.50
76996;DHT22;65929;49.062;10.338;2023-11-21T02:28:14;6.00;97.50
76996;DHT22;65929;49.062;10.338;2023-11-21T02:29:17;6.00;97.60
76996;DHT22;65929;49.062;10.338;2023-11-21T02:30:19;6.00;97.60
76996;DHT22;65929;49.062;10.338;2023-11-21T02:31:20;6.00;97.60
76996;DHT22;65929;49.062;10.338;2023-11-21T02:32:21;6.00;97.70
76996;DHT22;65929;49.062;10.338;2023-11-21T02:33:23;6.00;97.70
76996;DHT22;65929;49.062;10.338;2023-11-21T02:34:24;6.00;97.70
76996;DHT22;65929;49.062;10.338;2023-11-21T02:35:28;6.00;97.80
76996;DHT22;65929;49.062;10.338;2023-11-21T02:36:29;6.00;97.80
76996;DHT22;65929;49.062;10.338;2023-11-21T02:37:30;6.00;97.80
76996;DHT22;65929;49.062;10.338;2023-11-21T02:38:32;6.00;97.80
76996;DHT22;65929;49.062;10.338;2023-11-21T02:39:33;6.00;97.80
76996;DHT22;65929;49.062;10.338;2023-11-21T02:40:34;6.00;97.80
76996;DHT22;65929;49.062;10.338;2023-11-21T02:41:35;6.00;97.80
76996;DHT22;65929;49.062;10.338;2023-11-21T02:42:36;6.00;97.80
76996;DHT22;65929;49.062;10.338;2023-11-21T02:43:37;6.00;97.80
76996;DHT22;65929;49.062;10.338;2023-11-21T02:44:39;6.00;97.80
76996;DHT22;65929;49.062;10.338;2023-11-21T02:45:40;6.00;97.70
76996;DHT22;65929;49.062;10.338;2023-11-21T02:46:42;6.00;97.80
76996;DHT22;65929;49.062;10.338;2023-11-21T02:47:43;6.00;97.70
76996;DHT22;65929;49.062;10.338;2023-11-21T02:48:44;6.00;97.80
76996;DHT22;65929;49.062;10.338;2023-11-21T02:49:45;6.00;97.80
76996;DHT22;65929;49.062;10.338;2023-11-21T02:50:46;6.00;97.80
76996;DHT22;65929;49.062;10.338;2023-11-21T02:51:47;6.00;97.80
76996;DHT22;65929;49.062;10.338;2023-11-21T02:52:48;5.90;97.90
76996;DHT22;65929;49.062;10.338;2023-11-21T02:53:51;5.90;97.90
76996;DHT22;65929;49.062;10.338;2023-11-21T02:54:53;6.00;97.90
76996;DHT22;65929;49.062;10.338;2023-11-21T02:55:54;6.00;97.80
76996;DHT22;65929;49.062;10.338;2023-11-21T02:56:55;5.90;97.90
76996;DHT22;65929;49.062;10.338;2023-11-21T02:57:55;6.00;97.80
76996;DHT22;65929;49.062;10.338;2023-11-21T02:59:00;6.00;97.80
76996;DHT22;65929;49.062;10.338;2023-11-21T03:00:01;5.90;97.80
76996;DHT22;65929;49.062;10.338;2023-11-21T03:01:01;6.00;97.80
76996;DHT22;65929;49.062;10.338;2023-11-21T03:02:02;6.00;97.80
76996;DHT22;65929;49.062;10.338;2023-11-21T03:03:03;6.00;97.80
76996;DHT22;65929;49.062;10.338;2023-11-21T03:04:05;6.00;97.70
76996;DHT22;65929;49.062;10.338;2023-11-21T03:05:07;6.00;97.70
76996;DHT22;65929;49.062;10.338;2023-11-21T03:06:09;6.00;97.70
76996;DHT22;65929;49.062;10.338;2023-11-21T03:07:10;6.00;97.70
76996;DHT22;65929;49.062;10.338;2023-11-21T03:08:11;6.00;97.70
76996;DHT22;65929;49.062;10.338;2023-11-21T03:09:13;6.00;97.70
76996;DHT22;65929;49.062;10.338;2023-11-21T03:10:14;5.90;97.70
76996;DHT22;65929;49.062;10.338;2023-11-21T03:11:15;6.00;97.70
76996;DHT22;65929;49.062;10.338;2023-11-21T03:12:16;5.90;97.70
76996;DHT22;65929;49.062;10.338;2023-11-21T03:13:17;6.00;97.70
76996;DHT22;65929;49.062;10.338;2023-11-21T03:14:17;6.00;97.70
76996;DHT22;65929;49.062;10.338;2023-11-21T03:15:18;6.00;97.70
76996;DHT22;65929;49.062;10.338;2023-11-21T03:16:19;6.00;97.60
76996;DHT22;65929;49.062;10.338;2023-11-21T03:17:21;6.00;97.70
76996;DHT22;65929;49.062;10.338;2023-11-21T03:18:22;6.00;97.70
76996;DHT22;65929;49.062;10.338;2023-11-21T03:19:23;6.00;97.70
76996;DHT22;65929;49.062;10.338;2023-11-21T03:20:24;6.00;97.70
76996;DHT22;65929;49.062;10.338;2023-11-21T03:21:26;6.00;97.70
76996;DHT22;65929;49.062;10.338;2023-11-21T03:22:27;6.00;97.70
76996;DHT22;65929;49.062;10.338;2023-11-21T03:23:27;6.00;97.70
76996;DHT22;65929;49.062;10.338;2023-11-21T03:24:30;6.00;97.70
76996;DHT22;65929;49.062;10.338;2023-11-21T03:25:31;6.00;97.70
76996;DHT22;65929;49.062;10.338;2023-11-21T03:26:32;6.00;97.70
76996;DHT22;65929;49.062;10.338;2023-11-21T03:27:32;6.00;97.70
76996;DHT22;65929;49.062;10.338;2023-11-21T03:28:33;6.00;97.80
76996;DHT22;65929;49.062;10.338;2023-11-21T03:29:34;6.00;97.70
76996;DHT22;65929;49.062;10.338;2023-11-21T03:30:38;6.00;97.70
76996;DHT22;65929;49.062;10.338;2023-11-21T03:31:39;6.00;97.70
76996;DHT22;65929;49.062;10.338;2023-11-21T03:32:39;6.00;97.70
76996;DHT22;65929;49.062;10.338;2023-11-21T03:33:40;6.00;97.70
76996;DHT22;65929;49.062;10.338;2023-11-21T03:34:53;6.00;97.70
76996;DHT22;65929;49.062;10.338;2023-11-21T03:35:56;6.00;97.70
76996;DHT22;65929;49.062;10.338;2023-11-21T03:36:57;6.00;97.70
76996;DHT22;65929;49.062;10.338;2023-11-21T03:37:57;6.00;97.70
76996;DHT22;65929;49.062;10.338;2023-11-21T03:38:58;6.00;97.80
76996;DHT22;65929;49.062;10.338;2023-11-21T03:40:01;6.00;97.70
76996;DHT22;65929;49.062;10.338;2023-11-21T03:41:05;6.00;97.70
76996;DHT22;65929;49.062;10.338;2023-11-21T03:42:06;6.00;97.80
76996;DHT22;65929;49.062;10.338;2023-11-21T03:43:07;6.00;97.80
76996;DHT22;65929;49.062;10.338;2023-11-21T03:44:08;6.00;97.80
76996;DHT22;65929;49.062;10.338;2023-11-21T03:45:09;6.00;97.80
76996;DHT22;65929;49.062;10.338;2023-11-21T03:46:10;6.00;97.80
76996;DHT22;65929;49.062;10.338;2023-11-21T03:47:11;6.00;97.80
76996;DHT22;65929;49.062;10.338;2023-11-21T03:48:12;6.00;97.80
76996;DHT22;65929;49.062;10.338;2023-11-21T03:49:13;6.00;97.80
76996;DHT22;65929;49.062;10.338;2023-11-21T03:50:14;6.00;97.90
76996;DHT22;65929;49.062;10.338;2023-11-21T03:51:15;6.00;97.80
76996;DHT22;65929;49.062;10.338;2023-11-21T03:52:16;6.00;97.90
76996;DHT22;65929;49.062;10.338;2023-11-21T03:53:17;6.00;97.90
76996;DHT22;65929;49.062;10.338;2023-11-21T03:54:18;6.00;98.00
76996;DHT22;65929;49.062;10.338;2023-11-21T03:55:20;6.00;98.00
76996;DHT22;65929;49.062;10.338;2023-11-21T03:56:21;6.00;98.00
76996;DHT22;65929;49.062;10.338;2023-11-21T03:57:25;6.00;98.10
76996;DHT22;65929;49.062;10.338;2023-11-21T03:58:26;6.00;98.00
76996;DHT22;65929;49.062;10.338;2023-11-21T03:59:26;6.00;98.10
76996;DHT22;65929;49.062;10.338;2023-11-21T04:00:28;6.10;98.10
76996;DHT22;65929;49.062;10.338;2023-11-21T04:01:29;6.10;98.10
76996;DHT22;65929;49.062;10.338;2023-11-21T04:02:29;6.10;98.10
76996;DHT22;65929;49.062;10.338;2023-11-21T04:03:32;6.10;98.10
76996;DHT22;65929;49.062;10.338;2023-11-21T04:04:33;6.10;98.10
76996;DHT22;65929;49.062;10.338;2023-11-21T04:05:34;6.10;98.10
76996;DHT22;65929;49.062;10.338;2023-11-21T04:06:35;6.00;98.10
76996;DHT22;65929;49.062;10.338;2023-11-21T04:07:36;6.00;98.10
76996;DHT22;65929;49.062;10.338;2023-11-21T04:08:38;6.00;98.10
76996;DHT22;65929;49.062;10.338;2023-11-21T04:09:39;6.00;98.10
76996;DHT22;65929;49.062;10.338;2023-11-21T04:10:43;6.00;98.10
76996;DHT22;65929;49.062;10.338;2023-11-21T04:11:44;6.00;98.10
76996;DHT22;65929;49.062;10.338;2023-11-21T04:12:46;6.00;98.10
76996;DHT22;65929;49.062;10.338;2023-11-21T04:13:47;6.10;98.20
76996;DHT22;65929;49.062;10.338;2023-11-21T04:14:48;6.10;98.10
76996;DHT22;65929;49.062;10.338;2023-11-21T04:15:49;6.10;98.10
76996;DHT22;65929;49.062;10.338;2023-11-21T04:16:50;6.00;98.10
76996;DHT22;65929;49.062;10.338;2023-11-21T04:17:51;6.00;98.20
76996;DHT22;65929;49.062;10.338;2023-11-21T04:18:52;6.10;98.20
76996;DHT22;65929;49.062;10.338;2023-11-21T04:19:52;6.10;98.20
76996;DHT22;65929;49.062;10.338;2023-11-21T04:20:53;6.10;98.20
76996;DHT22;65929;49.062;10.338;2023-11-21T04:21:55;6.10;98.30
76996;DHT22;65929;49.062;10.338;2023-11-21T04:22:55;6.10;98.30
76996;DHT22;65929;49.062;10.338;2023-11-21T04:23:56;6.10;98.30
76996;DHT22;65929;49.062;10.338;2023-11-21T04:24:57;6.10;98.30
76996;DHT22;65929;49.062;10.338;2023-11-21T04:26:00;6.10;98.30
76996;DHT22;65929;49.062;10.338;2023-11-21T04:27:02;6.10;98.30
76996;DHT22;65929;49.062;10.338;2023-11-21T04:28:03;6.10;98.30
76996;DHT22;65929;49.062;10.338;2023-11-21T04:29:04;6.10;98.30
76996;DHT22;65929;49.062;10.338;2023-11-21T04:30:06;6.10;98.30
76996;DHT22;65929;49.062;10.338;2023-11-21T04:31:07;6.10;98.30
76996;DHT22;65929;49.062;10.338;2023-11-21T04:32:08;6.10;98.40
76996;DHT22;65929;49.062;10.338;2023-11-21T04:33:09;6.10;98.40
76996;DHT22;65929;49.062;10.338;2023-11-21T04:34:10;6.10;98.40
76996;DHT22;65929;49.062;10.338;2023-11-21T04:35:11;6.10;98.40
76996;DHT22;65929;49.062;10.338;2023-11-21T04:36:12;6.10;98.50
76996;DHT22;65929;49.062;10.338;2023-11-21T04:37:12;6.10;98.50
76996;DHT22;65929;49.062;10.338;2023-11-21T04:38:14;6.10;98.50
76996;DHT22;65929;49.062;10.338;2023-11-21T04:39:14;6.10;98.50
76996;DHT22;65929;49.062;10.338;2023-11-21T04:40:15;6.10;98.50
76996;DHT22;65929;49.062;10.338;2023-11-21T04:41:18;6.10;98.50
76996;DHT22;65929;49.062;10.338;2023-11-21T04:42:18;6.10;98.50
76996;DHT22;65929;49.062;10.338;2023-11-21T04:43:19;6.10;98.50
76996;DHT22;65929;49.062;10.338;2023-11-21T04:44:20;6.10;98.50
76996;DHT22;65929;49.062;10.338;2023-11-21T04:45:21;6.10;98.50
76996;DHT22;65929;49.062;10.338;2023-11-21T04:46:22;6.20;98.50
76996;DHT22;65929;49.062;10.338;2023-11-21T04:47:23;6.20;98.50
76996;DHT22;65929;49.062;10.338;2023-11-21T04:48:24;6.20;98.50
76996;DHT22;65929;49.062;10.338;2023-11-21T04:49:25;6.20;98.50
76996;DHT22;65929;49.062;10.338;2023-11-21T04:50:26;6.20;98.50
76996;DHT22;65929;49.062;10.338;2023-11-21T04:51:28;6.20;98.50
76996;DHT22;65929;49.062;10.338;2023-11-21T04:52:28;6.20;98.50
76996;DHT22;65929;49.062;10.338;2023-11-21T04:53:29;6.20;98.50
76996;DHT22;65929;49.062;10.338;2023-11-21T04:54:31;6.20;98.50
76996;DHT22;65929;49.062;10.338;2023-11-21T04:55:31;6.20;98.60
76996;DHT22;65929;49.062;10.338;2023-11-21T04:56:34;6.20;98.60
76996;DHT22;65929;49.062;10.338;2023-11-21T04:57:34;6.20;98.50
76996;DHT22;65929;49.062;10.338;2023-11-21T04:58:35;6.20;98.50
76996;DHT22;65929;49.062;10.338;2023-11-21T04:59:36;6.20;98.50
76996;DHT22;65929;49.062;10.338;2023-11-21T05:00:38;6.20;98.50
76996;DHT22;65929;49.062;10.338;2023-11-21T05:01:38;6.20;98.50
76996;DHT22;65929;49.062;10.338;2023-11-21T05:02:40;6.20;98.50
76996;DHT22;65929;49.062;10.338;2023-11-21T05:03:42;6.20;98.50
76996;DHT22;65929;49.062;10.338;2023-11-21T05:04:43;6.20;98.50
76996;DHT22;65929;49.062;10.338;2023-11-21T05:05:43;6.20;98.50
76996;DHT22;65929;49.062;10.338;2023-11-21T05:06:44;6.20;98.60
76996;DHT22;65929;49.062;10.338;2023-11-21T05:07:47;6.20;98.60
76996;DHT22;65929;49.062;10.338;2023-11-21T05:08:49;6.20;98.60
76996;DHT22;65929;49.062;10.338;2023-11-21T05:09:50;6.20;98.60
76996;DHT22;65929;49.062;10.338;2023-11-21T05:10:51;6.20;98.50
76996;DHT22;65929;49.062;10.338;2023-11-21T05:11:54;6.20;98.60
76996;DHT22;65929;49.062;10.338;2023-11-21T05:12:55;6.20;98.60
76996;DHT22;65929;49.062;10.338;2023-11-21T05:13:56;6.20;98.60
76996;DHT22;65929;49.062;10.338;2023-11-21T05:14:59;6.20;98.60
76996;DHT22;65929;49.062;10.338;2023-11-21T05:15:59;6.20;98.50
76996;DHT22;65929;49.062;10.338;2023-11-21T05:17:00;6.30;98.60
76996;DHT22;65929;49.062;10.338;2023-11-21T05:18:01;6.20;98.60
76996;DHT22;65929;49.062;10.338;2023-11-21T05:19:02;6.20;98.60
76996;DHT22;65929;49.062;10.338;2023-11-21T05:20:05;6.30;98.60
76996;DHT22;65929;49.062;10.338;2023-11-21T05:21:09;6.30;98.60
76996;DHT22;65929;49.062;10.338;2023-11-21T05:22:10;6.30;98.60
76996;DHT22;65929;49.062;10.338;2023-11-21T05:23:12;6.30;98.50
76996;DHT22;65929;49.062;10.338;2023-11-21T05:24:13;6.30;98.50
76996;DHT22;65929;49.062;10.338;2023-11-21T05:25:14;6.30;98.60
76996;DHT22;65929;49.062;10.338;2023-11-21T05:26:15;6.30;98.60
76996;DHT22;65929;49.062;10.338;2023-11-21T05:27:17;6.30;98.50
76996;DHT22;65929;49.062;10.338;2023-11-21T05:28:18;6.30;98.60
76996;DHT22;65929;49.062;10.338;2023-11-21T05:29:19;6.30;98.60
76996;DHT22;65929;49.062;10.338;2023-11-21T05:30:21;6.30;98.60
76996;DHT22;65929;49.062;10.338;2023-11-21T05:31:22;6.30;98.60
76996;DHT22;65929;49.062;10.338;2023-11-21T05:32:23;6.30;98.60
76996;DHT22;65929;49.062;10.338;2023-11-21T05:33:24;6.30;98.60
76996;DHT22;65929;49.062;10.338;2023-11-21T05:34:25;6.30;98.70
76996;DHT22;65929;49.062;10.338;2023-11-21T05:35:26;6.30;98.70
76996;DHT22;65929;49.062;10.338;2023-11-21T05:36:27;6.30;98.70
76996;DHT22;65929;49.062;10.338;2023-11-21T05:37:28;6.30;98.70
76996;DHT22;65929;49.062;10.338;2023-11-21T05:38:29;6.30;98.70
76996;DHT22;65929;49.062;10.338;2023-11-21T05:39:30;6.30;98.70
76996;DHT22;65929;49.062;10.338;2023-11-21T05:40:31;6.30;98.70
76996;DHT22;65929;49.062;10.338;2023-11-21T05:41:32;6.30;98.70
76996;DHT22;65929;49.062;10.338;2023-11-21T05:42:34;6.30;98.70
76996;DHT22;65929;49.062;10.338;2023-11-21T05:43:36;6.30;98.80
76996;DHT22;65929;49.062;10.338;2023-11-21T05:44:37;6.30;98.70
76996;DHT22;65929;49.062;10.338;2023-11-21T05:45:38;6.30;98.80
76996;DHT22;65929;49.062;10.338;2023-11-21T05:46:38;6.30;98.80
76996;DHT22;65929;49.062;10.338;2023-11-21T05:47:41;6.30;98.80
76996;DHT22;65929;49.062;10.338;2023-11-21T05:48:42;6.30;98.70
76996;DHT22;65929;49.062;10.338;2023-11-21T05:49:43;6.30;98.80
76996;DHT22;65929;49.062;10.338;2023-11-21T05:50:45;6.30;98.80
76996;DHT22;65929;49.062;10.338;2023-11-21T05:51:46;6.30;98.70
76996;DHT22;65929;49.062;10.338;2023-11-21T05:52:47;6.30;98.70
76996;DHT22;65929;49.062;10.338;2023-11-21T05:53:49;6.30;98.70
76996;DHT22;65929;49.062;10.338;2023-11-21T05:54:49;6.30;98.70
76996;DHT22;65929;49.062;10.338;2023-11-21T05:55:50;6.30;98.70
76996;DHT22;65929;49.062;10.338;2023-11-21T05:56:51;6.30;98.70
76996;DHT22;65929;49.062;10.338;2023-11-21T05:57:54;6.30;98.70
76996;DHT22;65929;49.062;10.338;2023-11-21T05:58:55;6.20;98.70
76996;DHT22;65929;49.062;10.338;2023-11-21T05:59:55;6.20;98.70
76996;DHT22;65929;49.062;10.338;2023-11-21T06:00:56;6.20;98.70
76996;DHT22;65929;49.062;10.338;2023-11-21T06:01:58;6.30;98.70
76996;DHT22;65929;49.062;10.338;2023-11-21T06:02:59;6.30;98.80
76996;DHT22;65929;49.062;10.338;2023-11-21T06:04:00;6.30;98.70
76996;DHT22;65929;49.062;10.338;2023-11-21T06:05:01;6.30;98.70
76996;DHT22;65929;49.062;10.338;2023-11-21T06:06:02;6.30;98.80
76996;DHT22;65929;49.062;10.338;2023-11-21T06:07:04;6.30;98.80
76996;DHT22;65929;49.062;10.338;2023-11-21T06:08:05;6.30;98.70
76996;DHT22;65929;49.062;10.338;2023-11-21T06:09:08;6.30;98.70
76996;DHT22;65929;49.062;10.338;2023-11-21T06:10:12;6.30;98.70
76996;DHT22;65929;49.062;10.338;2023-11-21T06:11:14;6.30;98.70
76996;DHT22;65929;49.062;10.338;2023-11-21T06:12:17;6.30;98.80
76996;DHT22;65929;49.062;10.338;2023-11-21T06:13:19;6.30;98.80
76996;DHT22;65929;49.062;10.338;2023-11-21T06:14:25;6.30;98.80
76996;DHT22;65929;49.062;10.338;2023-11-21T06:15:26;6.30;98.80
76996;DHT22;65929;49.062;10.338;2023-11-21T06:16:26;6.40;98.80
76996;DHT22;65929;49.062;10.338;2023-11-21T06:17:28;6.30;98.80
76996;DHT22;65929;49.062;10.338;2023-11-21T06:18:32;6.40;98.80
76996;DHT22;65929;49.062;10.338;2023-11-21T06:19:33;6.40;98.80
76996;DHT22;65929;49.062;10.338;2023-11-21T06:20:34;6.40;98.80
76996;DHT22;65929;49.062;10.338;2023-11-21T06:21:37;6.40;98.80
76996;DHT22;65929;49.062;10.338;2023-11-21T06:22:40;6.40;98.80
76996;DHT22;65929;49.062;10.338;2023-11-21T06:23:41;6.40;98.80
76996;DHT22;65929;49.062;10.338;2023-11-21T06:24:42;6.40;98.70
76996;DHT22;65929;49.062;10.338;2023-11-21T06:25:43;6.40;98.70
76996;DHT22;65929;49.062;10.338;2023-11-21T06:26:44;6.40;98.70
76996;DHT22;65929;49.062;10.338;2023-11-21T06:27:46;6.40;98.70